createdAt,value
2022-12-09T00:02:09.032Z,21.47
2022-12-09T00:04:36.789Z,17.80
2022-12-09T00:07:04.506Z,19.23
2022-12-09T00:09:32.076Z,19.10
2022-12-09T00:11:59.453Z,17.73
2022-12-09T00:14:27.027Z,17.47
2022-12-09T00:16:54.792Z,17.47
2022-12-09T00:19:22.391Z,19.73
2022-12-09T00:21:49.808Z,16.70
2022-12-09T00:24:17.330Z,15.83
2022-12-09T00:26:44.813Z,16.83
2022-12-09T00:29:12.726Z,16.60
2022-12-09T00:31:40.267Z,15.70
2022-12-09T00:34:12.546Z,14.93
2022-12-09T00:36:40.525Z,15.20
2022-12-09T00:39:08.144Z,14.83
2022-12-09T00:41:35.762Z,15.53
2022-12-09T00:44:03.777Z,20.33
2022-12-09T00:46:31.600Z,23.27
2022-12-09T00:48:59.210Z,20.83
2022-12-09T00:51:26.750Z,16.43
2022-12-09T00:53:55.901Z,16.20
2022-12-09T00:56:28.906Z,16.27
2022-12-09T00:58:58.206Z,16.87
2022-12-09T01:01:26.097Z,18.40
2022-12-09T01:03:53.691Z,22.30
2022-12-09T01:06:24.989Z,21.93
2022-12-09T01:08:53.071Z,21.97
2022-12-09T01:11:29.069Z,20.00
2022-12-09T01:14:01.457Z,17.13
2022-12-09T01:16:33.647Z,16.13
2022-12-09T01:19:05.307Z,16.60
2022-12-09T01:21:34.328Z,16.17
2022-12-09T01:24:07.531Z,15.57
2022-12-09T01:26:35.630Z,15.97
2022-12-09T01:29:03.329Z,16.77
2022-12-09T01:31:30.908Z,17.40
2022-12-09T01:33:58.699Z,17.97
2022-12-09T01:36:31.131Z,19.10
2022-12-09T01:39:00.719Z,20.03
2022-12-09T01:41:28.887Z,19.03
2022-12-09T01:44:23.140Z,19.30
2022-12-09T01:46:56.643Z,18.07
2022-12-09T01:49:37.383Z,18.00
2022-12-09T01:52:15.234Z,17.50
2022-12-09T01:54:45.944Z,17.10
2022-12-09T01:57:14.088Z,16.20
2022-12-09T01:59:42.473Z,16.87
2022-12-09T02:02:13.720Z,17.57
2022-12-09T02:04:46.255Z,16.83
2022-12-09T02:07:14.042Z,18.97
2022-12-09T02:09:43.172Z,18.20
2022-12-09T02:12:33.197Z,18.27
2022-12-09T02:15:19.734Z,22.50
2022-12-09T02:17:54.796Z,28.17
2022-12-09T02:20:25.432Z,29.73
2022-12-09T02:23:19.982Z,27.97
2022-12-09T02:26:17.961Z,20.33
2022-12-09T02:29:30.100Z,18.33
2022-12-09T02:32:22.160Z,18.87
2022-12-09T02:35:09.005Z,17.93
2022-12-09T02:38:00.129Z,16.37
2022-12-09T02:40:46.886Z,18.20
2022-12-09T02:43:16.130Z,19.67
2022-12-09T02:45:45.259Z,23.23
2022-12-09T02:48:16.829Z,19.87
2022-12-09T02:50:45.789Z,21.50
2022-12-09T02:53:15.315Z,26.77
2022-12-09T02:55:47.013Z,26.90
2022-12-09T02:58:15.034Z,22.00
2022-12-09T03:00:43.234Z,21.17
2022-12-09T03:03:17.609Z,20.80
2022-12-09T03:06:28.407Z,18.83
2022-12-09T03:09:09.113Z,17.93
2022-12-09T03:11:37.848Z,18.23
2022-12-09T03:14:21.625Z,19.27
2022-12-09T03:17:44.578Z,18.53
2022-12-09T03:20:17.943Z,18.27
2022-12-09T03:22:48.527Z,18.37
2022-12-09T03:25:26.540Z,18.77
2022-12-09T03:28:28.669Z,18.60
2022-12-09T03:31:00.827Z,18.80
2022-12-09T03:33:32.471Z,18.97
2022-12-09T03:36:05.023Z,18.53
2022-12-09T03:38:37.304Z,18.77
2022-12-09T03:41:24.222Z,18.63
2022-12-09T03:44:05.266Z,19.17
2022-12-09T03:46:33.076Z,20.70
2022-12-09T03:49:01.174Z,23.83
2022-12-09T03:51:43.389Z,24.13
2022-12-09T03:54:45.520Z,22.47
2022-12-09T03:57:19.082Z,22.77
2022-12-09T03:59:56.105Z,22.63
2022-12-09T04:02:24.496Z,20.27
2022-12-09T04:04:52.443Z,20.77
2022-12-09T04:07:20.245Z,22.03
2022-12-09T04:09:47.873Z,20.73
2022-12-09T04:12:15.487Z,19.97
2022-12-09T04:14:43.260Z,18.37
2022-12-09T04:17:12.786Z,19.27
2022-12-09T04:19:40.302Z,20.43
2022-12-09T04:22:07.955Z,19.30
2022-12-09T04:24:35.554Z,20.07
2022-12-09T04:27:03.126Z,20.87
2022-12-09T04:29:30.788Z,22.77
2022-12-09T04:31:58.746Z,21.73
2022-12-09T04:34:26.481Z,18.20
2022-12-09T04:36:54.232Z,21.87
2022-12-09T04:39:21.746Z,22.87
2022-12-09T04:41:49.268Z,22.03
2022-12-09T04:44:16.896Z,22.30
2022-12-09T04:46:44.477Z,20.10
2022-12-09T04:49:12.478Z,19.37
2022-12-09T04:51:40.862Z,20.30
2022-12-09T04:54:13.224Z,20.80
2022-12-09T04:56:41.766Z,21.10
2022-12-09T04:59:09.856Z,20.37
2022-12-09T05:01:37.843Z,20.47
2022-12-09T05:04:05.776Z,20.07
2022-12-09T05:06:33.670Z,19.07
2022-12-09T05:09:01.903Z,20.33
2022-12-09T05:11:29.740Z,20.93
2022-12-09T05:13:57.298Z,21.80
2022-12-09T05:16:25.063Z,22.87
2022-12-09T05:18:52.621Z,22.93
2022-12-09T05:21:22.370Z,21.17
2022-12-09T05:23:50.435Z,21.10
2022-12-09T05:26:22.105Z,20.13
2022-12-09T05:28:51.042Z,20.43
2022-12-09T05:31:22.734Z,21.20
2022-12-09T05:33:52.381Z,22.67
2022-12-09T05:36:26.383Z,22.23
2022-12-09T05:38:55.464Z,22.70
2022-12-09T05:41:24.412Z,21.50
2022-12-09T05:43:52.634Z,21.17
2022-12-09T05:46:22.522Z,21.43
2022-12-09T05:48:50.810Z,21.37
2022-12-09T05:51:27.066Z,22.30
2022-12-09T05:53:56.584Z,23.87
2022-12-09T05:56:25.589Z,22.57
2022-12-09T05:58:54.668Z,22.57
2022-12-09T06:01:24.241Z,22.23
2022-12-09T06:03:54.239Z,22.27
2022-12-09T06:06:26.851Z,22.07
2022-12-09T06:09:02.794Z,23.57
2022-12-09T06:11:32.797Z,22.97
2022-12-09T06:14:01.036Z,24.03
2022-12-09T06:16:28.973Z,23.13
2022-12-09T06:18:56.875Z,22.23
2022-12-09T06:21:25.204Z,23.30
2022-12-09T06:23:53.615Z,22.10
2022-12-09T06:26:28.879Z,21.03
2022-12-09T06:28:57.723Z,21.70
2022-12-09T06:31:26.713Z,24.80
2022-12-09T06:33:57.100Z,26.20
2022-12-09T06:36:27.268Z,25.40
2022-12-09T06:38:56.695Z,24.67
2022-12-09T06:41:25.398Z,23.17
2022-12-09T06:43:53.252Z,28.00
2022-12-09T06:46:26.240Z,25.07
2022-12-09T06:48:55.797Z,25.70
2022-12-09T06:51:25.328Z,24.73
2022-12-09T06:53:53.586Z,25.43
2022-12-09T06:56:21.714Z,26.80
2022-12-09T06:58:49.288Z,29.03
2022-12-09T07:01:21.971Z,33.03
2022-12-09T07:03:56.655Z,29.47
2022-12-09T07:06:35.408Z,29.40
2022-12-09T07:09:17.708Z,30.10
2022-12-09T07:11:47.354Z,27.07
2022-12-09T07:14:18.356Z,29.17
2022-12-09T07:16:47.148Z,31.87
2022-12-09T07:19:18.972Z,32.10
2022-12-09T07:21:47.170Z,28.50
2022-12-09T07:24:15.435Z,26.10
2022-12-09T07:26:43.405Z,26.67
2022-12-09T07:29:11.224Z,25.40
2022-12-09T07:31:39.022Z,25.93
2022-12-09T07:34:07.089Z,25.50
2022-12-09T07:36:36.711Z,25.87
2022-12-09T07:39:12.711Z,26.83
2022-12-09T07:41:40.683Z,23.80
2022-12-09T07:44:11.235Z,27.50
2022-12-09T07:46:39.904Z,30.03
2022-12-09T07:49:07.581Z,34.93
2022-12-09T07:51:35.850Z,35.33
2022-12-09T07:54:04.746Z,38.07
2022-12-09T07:56:32.889Z,57.40
2022-12-09T07:59:00.801Z,33.97
2022-12-09T08:01:30.603Z,38.80
2022-12-09T08:03:59.380Z,43.67
2022-12-09T08:06:29.604Z,41.53
2022-12-09T08:09:03.354Z,39.67
2022-12-09T08:11:33.393Z,34.10
2022-12-09T08:14:10.898Z,26.77
2022-12-09T08:16:41.897Z,25.03
2022-12-09T08:19:10.282Z,24.87
2022-12-09T08:21:38.515Z,25.40
2022-12-09T08:24:08.154Z,23.50
2022-12-09T08:26:39.440Z,22.23
2022-12-09T08:29:10.376Z,25.40
2022-12-09T08:31:41.744Z,18.13
2022-12-09T08:34:10.221Z,27.07
2022-12-09T08:36:38.047Z,25.17
2022-12-09T08:39:06.955Z,25.00
2022-12-09T08:41:38.484Z,25.37
2022-12-09T08:44:20.421Z,24.80
2022-12-09T08:46:51.023Z,22.27
2022-12-09T08:49:23.242Z,22.30
2022-12-09T08:51:53.445Z,24.77
2022-12-09T08:54:21.590Z,24.67
2022-12-09T08:56:52.228Z,25.17
2022-12-09T08:59:20.473Z,28.93
2022-12-09T09:01:48.736Z,31.17
2022-12-09T09:04:21.570Z,31.47
2022-12-09T09:06:51.649Z,29.70
2022-12-09T09:09:21.339Z,27.77
2022-12-09T09:11:49.562Z,25.70
2022-12-09T09:14:17.448Z,17.77
2022-12-09T09:16:46.349Z,19.97
2022-12-09T09:19:20.868Z,25.03
2022-12-09T09:21:49.777Z,25.10
2022-12-09T09:24:21.365Z,29.37
2022-12-09T09:26:51.677Z,24.53
2022-12-09T09:29:21.510Z,23.83
2022-12-09T09:31:54.518Z,21.33
2022-12-09T09:34:24.092Z,20.83
2022-12-09T09:36:52.046Z,19.23
2022-12-09T09:39:21.570Z,25.30
2022-12-09T09:42:09.031Z,21.20
2022-12-09T09:44:49.513Z,19.80
2022-12-09T09:47:25.975Z,18.27
2022-12-09T09:50:05.938Z,19.77
2022-12-09T09:52:38.319Z,16.60
2022-12-09T09:55:18.385Z,14.33
2022-12-09T09:58:26.332Z,13.80
2022-12-09T10:01:13.428Z,16.90
2022-12-09T10:03:53.595Z,13.17
2022-12-09T10:06:46.017Z,12.60
2022-12-09T10:09:28.605Z,13.53
2022-12-09T10:12:19.226Z,12.97
2022-12-09T10:15:08.935Z,14.17
2022-12-09T10:18:07.853Z,14.53
2022-12-09T10:20:36.000Z,14.60
2022-12-09T10:23:09.570Z,14.33
2022-12-09T10:25:45.571Z,15.73
2022-12-09T10:28:35.264Z,17.27
2022-12-09T10:31:03.634Z,17.60
2022-12-09T10:33:39.094Z,16.93
2022-12-09T10:36:20.784Z,16.80
2022-12-09T10:38:48.767Z,16.20
2022-12-09T10:41:45.495Z,17.67
2022-12-09T10:44:26.158Z,17.37
2022-12-09T10:47:03.447Z,18.20
2022-12-09T10:49:33.303Z,18.47
2022-12-09T10:52:01.762Z,17.90
2022-12-09T10:54:41.707Z,18.33
2022-12-09T10:57:12.692Z,18.10
2022-12-09T10:59:43.731Z,18.47
2022-12-09T11:02:11.256Z,19.23
2022-12-09T11:04:45.293Z,22.10
2022-12-09T11:07:13.163Z,19.00
2022-12-09T11:09:51.158Z,18.10
2022-12-09T11:12:30.970Z,17.87
2022-12-09T11:15:36.075Z,17.73
2022-12-09T11:18:32.323Z,18.53
2022-12-09T11:21:05.931Z,18.77
2022-12-09T11:23:35.730Z,20.73
2022-12-09T11:26:07.748Z,18.60
2022-12-09T11:28:41.241Z,17.07
2022-12-09T11:31:29.570Z,16.93
2022-12-09T11:34:03.401Z,17.57
2022-12-09T11:36:42.263Z,16.80
2022-12-09T11:39:35.854Z,15.23
2022-12-09T11:42:23.272Z,16.90
2022-12-09T11:45:30.708Z,15.23
2022-12-09T11:48:32.029Z,17.97
2022-12-09T11:50:57.079Z,19.30
2022-12-09T11:53:32.814Z,16.57
2022-12-09T11:56:17.865Z,19.47
2022-12-09T11:59:41.914Z,18.20
2022-12-09T12:02:22.533Z,14.80
2022-12-09T12:05:03.844Z,17.10
2022-12-09T12:07:46.754Z,17.73
2022-12-09T12:10:27.536Z,16.67
2022-12-09T12:13:12.556Z,16.90
2022-12-09T12:15:58.752Z,16.30
2022-12-09T12:18:33.611Z,15.83
2022-12-09T12:22:04.829Z,15.87
2022-12-09T12:25:05.890Z,22.43
2022-12-09T12:27:45.323Z,22.20
2022-12-09T12:30:23.403Z,22.70
2022-12-09T12:37:02.630Z,19.10
2022-12-09T12:39:57.627Z,23.33
2022-12-09T12:43:23.100Z,29.53
2022-12-09T12:46:20.141Z,19.13
2022-12-09T12:49:11.548Z,17.80
2022-12-09T12:51:47.373Z,17.20
2022-12-09T12:54:26.577Z,16.00
2022-12-09T12:57:39.185Z,17.33
2022-12-09T13:00:22.116Z,14.73
2022-12-09T13:03:09.591Z,17.43
2022-12-09T13:05:44.131Z,17.70
2022-12-09T13:08:20.049Z,16.83
2022-12-09T13:10:57.393Z,18.00
2022-12-09T13:13:31.440Z,16.57
2022-12-09T13:16:14.168Z,17.17
2022-12-09T13:18:43.387Z,19.50
2022-12-09T13:21:12.294Z,17.77
2022-12-09T13:23:55.114Z,17.13
2022-12-09T13:26:47.057Z,16.03
2022-12-09T13:30:02.324Z,21.57
2022-12-09T13:32:54.278Z,19.73
2022-12-09T13:35:42.838Z,21.60
2022-12-09T13:38:33.918Z,27.57
2022-12-09T13:41:26.948Z,26.93
2022-12-09T13:44:13.388Z,16.83
2022-12-09T13:46:43.086Z,25.17
2022-12-09T13:49:24.437Z,35.17
2022-12-09T13:51:54.865Z,37.67
2022-12-09T13:54:27.778Z,44.13
2022-12-09T13:57:19.804Z,44.70
2022-12-09T13:59:56.869Z,35.63
2022-12-09T14:02:58.945Z,27.43
2022-12-09T14:05:30.936Z,23.33
2022-12-09T14:08:08.609Z,23.17
2022-12-09T14:10:45.774Z,25.83
2022-12-09T14:13:29.982Z,21.13
2022-12-09T14:16:27.987Z,20.90
2022-12-09T14:18:57.358Z,21.63
2022-12-09T14:21:33.627Z,25.67
2022-12-09T14:24:11.481Z,31.80
2022-12-09T14:26:47.023Z,27.57
2022-12-09T14:29:58.382Z,27.83
2022-12-09T14:32:54.201Z,26.63
2022-12-09T14:35:48.452Z,24.17
2022-12-09T14:38:21.771Z,21.23
2022-12-09T14:41:23.428Z,22.43
2022-12-09T14:44:35.669Z,25.30
2022-12-09T14:47:25.461Z,32.50
2022-12-09T14:49:55.916Z,29.30
2022-12-09T14:52:32.367Z,29.03
2022-12-09T14:55:06.858Z,30.47
2022-12-09T14:57:42.568Z,29.00
2022-12-09T15:00:38.344Z,29.00
2022-12-09T15:03:42.766Z,28.77
2022-12-09T15:06:13.940Z,36.27
2022-12-09T15:08:43.049Z,35.60
2022-12-09T15:11:15.165Z,33.87
2022-12-09T15:13:46.265Z,32.47
2022-12-09T15:16:19.042Z,34.80
2022-12-09T15:18:47.251Z,29.13
2022-12-09T15:21:32.321Z,39.37
2022-12-09T15:24:01.099Z,49.97
2022-12-09T15:26:32.911Z,55.83
2022-12-09T15:29:01.494Z,64.00
2022-12-09T15:31:32.144Z,53.60
2022-12-09T15:34:09.544Z,41.87
2022-12-09T15:36:50.479Z,31.67
2022-12-09T15:39:41.472Z,31.17
2022-12-09T15:42:15.074Z,25.23
2022-12-09T15:45:09.842Z,24.97
2022-12-09T15:48:19.085Z,23.73
2022-12-09T15:50:55.203Z,25.93
2022-12-09T15:53:35.973Z,25.47
2022-12-09T15:57:09.791Z,30.83
2022-12-09T15:59:43.943Z,30.70
2022-12-09T16:02:22.299Z,30.87
2022-12-09T16:04:55.493Z,32.17
2022-12-09T16:07:25.380Z,31.30
2022-12-09T16:10:09.922Z,30.67
2022-12-09T16:12:38.837Z,31.90
2022-12-09T16:15:11.755Z,36.47
2022-12-09T16:17:54.417Z,41.37
2022-12-09T16:20:44.012Z,43.53
2022-12-09T16:23:24.977Z,39.83
2022-12-09T16:26:04.782Z,36.40
2022-12-09T16:28:34.892Z,39.37
2022-12-09T16:31:17.907Z,40.10
2022-12-09T16:33:49.584Z,41.07
2022-12-09T16:36:29.301Z,41.00
2022-12-09T16:39:08.900Z,39.90
2022-12-09T16:41:51.361Z,38.13
2022-12-09T16:44:36.220Z,37.60
2022-12-09T16:47:16.234Z,39.10
2022-12-09T16:49:47.717Z,39.87
2022-12-09T16:52:22.767Z,39.63
2022-12-09T16:54:51.004Z,38.93
2022-12-09T16:57:20.854Z,38.03
2022-12-09T16:59:48.723Z,36.43
2022-12-09T17:02:31.390Z,35.00
2022-12-09T17:05:00.721Z,37.67
2022-12-09T17:07:28.176Z,36.63
2022-12-09T17:09:55.625Z,36.57
2022-12-09T17:12:23.085Z,40.53
2022-12-09T17:14:51.479Z,37.27
2022-12-09T17:17:18.998Z,38.27
2022-12-09T17:19:46.380Z,38.43
2022-12-09T17:22:13.847Z,38.77
2022-12-09T17:24:41.463Z,38.80
2022-12-09T17:27:08.947Z,39.77
2022-12-09T17:29:37.483Z,33.17
2022-12-09T17:32:05.466Z,35.20
2022-12-09T17:34:33.242Z,33.03
2022-12-09T17:37:00.724Z,31.60
2022-12-09T17:39:28.111Z,32.97
2022-12-09T17:41:55.536Z,33.93
2022-12-09T17:44:23.168Z,31.30
2022-12-09T17:46:51.017Z,31.77
2022-12-09T17:49:19.780Z,33.47
2022-12-09T17:51:47.728Z,31.93
2022-12-09T17:54:15.115Z,30.67
2022-12-09T17:56:42.558Z,33.63
2022-12-09T17:59:13.693Z,32.03
2022-12-09T18:01:43.768Z,29.10
2022-12-09T18:04:11.444Z,32.33
2022-12-09T18:06:43.943Z,47.30
2022-12-09T18:09:15.789Z,41.50
2022-12-09T18:11:44.766Z,31.40
2022-12-09T18:14:12.401Z,29.50
2022-12-09T18:16:39.982Z,30.23
2022-12-09T18:19:15.243Z,29.90
2022-12-09T18:21:43.894Z,33.37
2022-12-09T18:24:11.510Z,30.93
2022-12-09T18:26:42.001Z,29.77
2022-12-09T18:29:12.031Z,29.07
2022-12-09T18:31:40.617Z,32.73
2022-12-09T18:34:08.688Z,33.90
2022-12-09T18:36:36.160Z,28.67
2022-12-09T18:39:04.731Z,30.93
2022-12-09T18:41:33.213Z,37.73
2022-12-09T18:44:05.172Z,34.73
2022-12-09T18:46:36.895Z,40.53
2022-12-09T18:49:10.371Z,36.17
2022-12-09T18:51:39.318Z,42.20
2022-12-09T18:54:07.960Z,47.37
2022-12-09T18:56:36.695Z,42.87
2022-12-09T18:59:07.408Z,45.33
2022-12-09T19:01:39.887Z,42.93
2022-12-09T19:04:15.548Z,39.53
2022-12-09T19:06:46.787Z,49.97
2022-12-09T19:09:19.143Z,45.53
2022-12-09T19:11:48.324Z,44.60
2022-12-09T19:14:18.018Z,39.83
2022-12-09T19:16:46.032Z,39.40
2022-12-09T19:19:16.775Z,39.53
2022-12-09T19:21:44.611Z,39.80
2022-12-09T19:24:18.808Z,42.13
2022-12-09T19:26:46.689Z,42.10
2022-12-09T19:29:16.014Z,40.93
2022-12-09T19:31:47.294Z,39.90
2022-12-09T19:34:21.566Z,39.90
2022-12-09T19:36:51.737Z,39.57
2022-12-09T19:39:21.605Z,40.30
2022-12-09T19:41:49.207Z,37.27
2022-12-09T19:44:37.417Z,38.43
2022-12-09T19:47:07.424Z,38.07
2022-12-09T19:49:36.382Z,43.47
2022-12-09T19:52:04.125Z,57.87
2022-12-09T19:54:31.544Z,47.57
2022-12-09T19:56:59.090Z,46.73
2022-12-09T19:59:27.902Z,45.80
2022-12-09T20:01:55.753Z,45.50
2022-12-09T20:07:13.127Z,48.57
2022-12-09T20:09:40.579Z,49.93
2022-12-09T20:12:08.062Z,52.03
2022-12-09T20:14:35.583Z,54.90
2022-12-09T20:17:03.069Z,52.57
2022-12-09T20:19:31.548Z,54.50
2022-12-09T20:21:59.043Z,51.30
2022-12-09T20:24:27.006Z,41.70
2022-12-09T20:26:56.132Z,43.67
2022-12-09T20:29:23.639Z,45.20
2022-12-09T20:31:51.595Z,43.30
2022-12-09T20:34:19.122Z,42.17
2022-12-09T20:36:46.897Z,44.40
2022-12-09T20:39:20.104Z,41.97
2022-12-09T20:41:49.008Z,40.87
2022-12-09T20:44:18.492Z,48.50
2022-12-09T20:46:50.617Z,44.93
2022-12-09T20:49:22.176Z,47.63
2022-12-09T20:51:49.853Z,56.50
2022-12-09T20:54:17.376Z,44.77
2022-12-09T20:56:44.852Z,41.73
2022-12-09T20:59:13.867Z,40.80
2022-12-09T21:01:42.334Z,40.83
2022-12-09T21:04:09.873Z,40.97
2022-12-09T21:06:40.452Z,42.40
2022-12-09T21:09:12.994Z,41.77
2022-12-09T21:11:40.912Z,41.67
2022-12-09T21:14:08.667Z,46.47
2022-12-09T21:16:41.511Z,42.63
2022-12-09T21:19:13.591Z,43.30
2022-12-09T21:21:46.893Z,41.43
2022-12-09T21:24:16.480Z,42.47
2022-12-09T21:26:46.515Z,41.83
2022-12-09T21:29:15.044Z,41.93
2022-12-09T21:31:44.457Z,41.57
2022-12-09T21:34:11.984Z,41.13
2022-12-09T21:36:42.987Z,42.30
2022-12-09T21:39:14.533Z,40.67
2022-12-09T21:41:43.409Z,41.30
2022-12-09T21:44:17.386Z,41.90
2022-12-09T21:46:45.602Z,40.10
2022-12-09T21:49:13.893Z,40.30
2022-12-09T21:51:42.528Z,39.47
2022-12-09T21:54:10.046Z,41.83
2022-12-09T21:56:38.055Z,39.87
2022-12-09T21:59:07.107Z,38.23
2022-12-09T22:01:39.033Z,39.57
2022-12-09T22:04:11.685Z,38.30
2022-12-09T22:06:40.140Z,40.87
2022-12-09T22:09:08.939Z,41.73
2022-12-09T22:11:38.829Z,41.00
2022-12-09T22:14:09.221Z,37.97
2022-12-09T22:16:41.622Z,39.03
2022-12-09T22:19:14.584Z,39.27
2022-12-09T22:21:42.282Z,37.50
2022-12-09T22:24:16.872Z,38.10
2022-12-09T22:26:47.074Z,36.90
2022-12-09T22:29:16.912Z,38.50
2022-12-09T22:31:45.907Z,38.00
2022-12-09T22:34:19.799Z,38.40
2022-12-09T22:36:49.465Z,37.50
2022-12-09T22:39:21.713Z,38.70
2022-12-09T22:41:49.357Z,38.80
2022-12-09T22:44:19.657Z,38.33
2022-12-09T22:46:47.658Z,36.37
2022-12-09T22:49:16.355Z,36.93
2022-12-09T22:51:44.781Z,37.80
2022-12-09T22:54:13.178Z,41.20
2022-12-09T22:56:42.804Z,37.77
2022-12-09T22:59:11.627Z,39.13
2022-12-09T23:01:39.168Z,38.80
2022-12-09T23:04:08.462Z,37.30
2022-12-09T23:06:38.442Z,38.40
2022-12-09T23:09:08.750Z,39.00
2022-12-09T23:11:37.251Z,39.27
2022-12-09T23:14:05.335Z,38.30
2022-12-09T23:16:32.797Z,37.20
2022-12-09T23:19:00.272Z,37.60
2022-12-09T23:21:33.123Z,38.73
2022-12-09T23:24:04.506Z,38.17
2022-12-09T23:26:37.059Z,37.73
2022-12-09T23:29:07.492Z,37.80
2022-12-09T23:31:37.724Z,36.57
2022-12-09T23:34:07.406Z,36.63
2022-12-09T23:36:38.615Z,35.37
2022-12-09T23:39:12.203Z,37.20
2022-12-09T23:41:41.515Z,35.77
2022-12-09T23:44:18.060Z,36.80
2022-12-09T23:46:45.915Z,36.50
2022-12-09T23:49:13.880Z,36.70
2022-12-09T23:51:44.172Z,34.67
2022-12-09T23:54:14.867Z,35.97
2022-12-09T23:56:50.903Z,35.53
2022-12-09T23:59:21.499Z,36.77
